Time;durP1;ratioP1;P1;durP2;ratioP2;P2;SDS_P1;SDS_P2;PMS_P1;PMS_P2;Temp;Humidity;BMP_temperature;BMP_pressure;BME280_temperature;BME280_humidity;BME280_pressure;Samples;Min_cycle;Max_cycle;Signal;HPM_P1;HPM_P2
2021/12/24 00:00:42;;;;;;;2.88;2.25;;;;;;;-3.11;49.13;98935.50;3314212;29;20047;-72
2021/12/24 00:02:22;;;;;;;2.83;2.33;;;;;;;-3.05;49.24;98949.00;3314032;29;20042;-71
2021/12/24 00:04:03;;;;;;;3.30;2.25;;;;;;;-3.01;48.95;98950.41;3313125;29;20133;-71
2021/12/24 00:05:47;;;;;;;3.72;1.90;;;;;;;-2.98;49.19;98948.34;3314781;29;20074;-73
2021/12/24 00:07:28;;;;;;;3.63;2.88;;;;;;;-2.95;49.24;98947.28;3314823;29;20057;-71
2021/12/24 00:09:09;;;;;;;3.03;2.10;;;;;;;-2.91;48.78;98943.47;3303529;29;20529;-72
2021/12/24 00:13:59;;;;;;;3.22;1.88;;;;;;;-2.80;48.75;98927.75;3310047;29;20062;-72
2021/12/24 00:16:18;;;;;;;2.75;1.83;;;;;;;-2.78;48.47;98938.88;3296445;29;20619;-71
2021/12/24 00:18:08;;;;;;;3.30;2.10;;;;;;;-2.79;48.76;98932.00;3288427;29;20059;-71
2021/12/24 00:21:34;;;;;;;3.10;1.80;;;;;;;-2.81;48.80;98931.34;3288897;30;20147;-72
2021/12/24 00:35:35;;;;;;;6.25;3.05;;;;;;;-2.90;47.82;98916.44;3301446;30;20047;-72
2021/12/24 00:37:16;;;;;;;4.22;2.22;;;;;;;-2.91;47.85;98917.41;3301126;29;20538;-70
2021/12/24 00:38:58;;;;;;;3.35;2.25;;;;;;;-2.91;47.99;98915.63;3301097;30;20058;-71
2021/12/24 00:40:41;;;;;;;3.83;2.10;;;;;;;-2.92;48.10;98919.19;3302226;29;20043;-71
2021/12/24 00:42:22;;;;;;;3.35;2.47;;;;;;;-2.93;48.11;98901.06;3301085;29;20051;-71
2021/12/24 00:44:03;;;;;;;3.90;2.25;;;;;;;-3.00;47.84;98899.91;3301467;30;20136;-73
2021/12/24 00:45:45;;;;;;;4.28;2.67;;;;;;;-2.91;48.06;98910.41;3300187;29;20080;-73
2021/12/24 00:47:26;;;;;;;4.30;1.98;;;;;;;-2.90;47.96;98916.44;3300738;29;20054;-72
2021/12/24 00:49:07;;;;;;;1.92;1.80;;;;;;;-2.90;47.60;98901.63;3301617;29;20051;-71
2021/12/24 00:53:01;;;;;;;4.05;2.63;;;;;;;-2.91;47.77;98893.94;3301118;29;20488;-72
2021/12/24 01:02:26;;;;;;;3.90;2.47;;;;;;;-2.99;47.04;98878.94;3312328;29;20192;-71
2021/12/24 01:04:06;;;;;;;4.07;1.95;;;;;;;-3.03;47.00;98877.53;3312374;29;20049;-71
2021/12/24 01:05:47;;;;;;;2.83;2.05;;;;;;;-3.07;47.29;98868.34;3312364;29;20047;-72
2021/12/24 01:07:28;;;;;;;4.93;3.72;;;;;;;-3.04;47.31;98872.47;3312651;29;20142;-71
2021/12/24 01:09:09;;;;;;;2.90;2.35;;;;;;;-3.08;47.16;98880.53;3300791;29;20415;-71
2021/12/24 01:10:57;;;;;;;3.42;1.98;;;;;;;-3.15;47.30;98866.38;3300518;30;20047;-73
2021/12/24 01:12:37;;;;;;;5.28;2.65;;;;;;;-3.11;47.12;98861.72;3301692;29;20054;-71
2021/12/24 01:14:21;;;;;;;2.15;1.75;;;;;;;-3.14;46.95;98872.41;3300699;30;20508;-71
2021/12/24 01:16:12;;;;;;;2.05;1.80;;;;;;;-3.15;47.24;98871.59;3301498;30;20058;-72
2021/12/24 01:18:23;;;;;;;3.15;2.40;;;;;;;-3.16;47.20;98864.69;3303688;29;20051;-72
2021/12/24 01:19:59;;;;;;;3.15;2.25;;;;;;;-3.18;46.97;98871.81;3312983;29;20118;-72
2021/12/24 01:25:22;;;;;;;2.83;2.10;;;;;;;-3.23;47.16;98858.34;3313079;29;20054;-71
2021/12/24 01:39:12;;;;;;;2.95;1.83;;;;;;;-3.19;47.15;98849.31;3311005;29;20046;-74
2021/12/24 01:41:05;;;;;;;2.95;2.28;;;;;;;-3.19;46.99;98838.91;3311894;29;20146;-72
2021/12/24 01:42:48;;;;;;;4.95;2.22;;;;;;;-3.19;46.71;98846.72;3311848;29;20535;-73
2021/12/24 01:44:29;;;;;;;4.25;2.33;;;;;;;-3.19;46.72;98845.91;3311915;29;20051;-71
2021/12/24 01:52:07;;;;;;;5.45;2.28;;;;;;;-3.05;46.53;98847.34;3300325;30;20419;-72
2021/12/24 01:53:53;;;;;;;3.10;2.28;;;;;;;-3.09;46.83;98839.78;3299117;29;20085;-72
2021/12/24 01:55:35;;;;;;;2.80;2.42;;;;;;;-3.09;46.82;98838.97;3300155;30;20527;-73
2021/12/24 01:57:16;;;;;;;3.83;2.50;;;;;;;-3.08;46.99;98840.59;3299019;29;20196;-72
2021/12/24 01:58:57;;;;;;;2.53;2.25;;;;;;;-3.08;46.59;98836.22;3308112;29;20042;-71
2021/12/24 02:00:41;;;;;;;3.53;2.28;;;;;;;-3.07;46.72;98827.47;3312426;29;20046;-72
2021/12/24 02:02:22;;;;;;;3.50;2.80;;;;;;;-3.06;46.84;98823.06;3311637;29;20043;-72
2021/12/24 02:04:03;;;;;;;4.32;2.13;;;;;;;-3.04;47.05;98820.34;3312483;29;20046;-73
2021/12/24 02:05:44;;;;;;;5.55;2.72;;;;;;;-3.03;46.67;98833.22;3311818;29;20053;-71
2021/12/24 02:07:25;;;;;;;2.53;1.80;;;;;;;-3.02;46.70;98823.63;3311627;29;20046;-71
2021/12/24 02:09:06;;;;;;;3.38;2.53;;;;;;;-3.04;46.69;98826.38;3310600;29;20383;-72
2021/12/24 02:10:48;;;;;;;3.60;2.80;;;;;;;-3.01;46.68;98830.50;3312544;29;20103;-73
2021/12/24 02:12:50;;;;;;;2.38;2.10;;;;;;;-3.00;46.82;98825.16;3299013;29;20051;-72
2021/12/24 02:14:36;;;;;;;;;;;;;;;-2.93;46.78;98833.28;3312061;29;20051;-71
2021/12/24 02:29:47;;;;;;;5.43;2.33;;;;;;;-2.94;46.44;98816.00;3310292;29;20468;-70
2021/12/24 02:31:27;;;;;;;4.68;2.30;;;;;;;-2.98;46.68;98801.56;3311331;29;20194;-72
2021/12/24 02:33:08;;;;;;;2.60;2.20;;;;;;;-3.01;46.39;98820.06;3298973;29;20058;-71
2021/12/24 02:34:49;;;;;;;5.93;2.75;;;;;;;-3.06;46.50;98799.59;3308822;29;20050;-72
2021/12/24 02:36:30;;;;;;;4.57;2.47;;;;;;;-3.02;46.73;98797.56;3312353;29;20061;-70
2021/12/24 02:38:11;;;;;;;3.20;2.30;;;;;;;-2.99;46.41;98799.94;3312169;29;20046;-70
2021/12/24 02:39:54;;;;;;;4.07;2.58;;;;;;;-2.96;46.46;98803.09;3301327;29;20051;-71
2021/12/24 02:41:35;;;;;;;3.03;2.53;;;;;;;-2.95;46.53;98788.28;3298840;30;20089;-71
2021/12/24 02:43:19;;;;;;;3.05;2.40;;;;;;;-2.91;46.49;98792.28;3299600;29;20515;-72
2021/12/24 02:45:00;;;;;;;3.03;2.10;;;;;;;-2.90;46.79;98781.69;3299099;30;20602;-71
2021/12/24 02:53:57;;;;;;;2.60;2.40;;;;;;;-2.78;46.36;98787.66;3312328;29;20051;-71
2021/12/24 02:55:38;;;;;;;7.60;2.30;;;;;;;-2.77;46.42;98781.47;3310930;29;20099;-71
2021/12/24 02:57:26;;;;;;;4.38;2.75;;;;;;;-2.77;46.36;98785.88;3310876;29;20046;-70
2021/12/24 02:59:11;;;;;;;3.90;2.20;;;;;;;-2.78;46.37;98792.06;3308830;29;20061;-70
2021/12/24 03:00:52;;;;;;;5.43;2.88;;;;;;;-2.78;46.39;98779.84;3299476;29;20431;-71
2021/12/24 03:02:34;;;;;;;4.10;2.67;;;;;;;-2.78;46.58;98781.63;3298771;29;20051;-72
2021/12/24 03:04:15;;;;;;;3.25;2.53;;;;;;;-2.75;46.53;98778.75;3298851;30;20578;-73
2021/12/24 03:05:56;;;;;;;3.63;3.00;;;;;;;-2.78;46.59;98779.84;3299377;30;20054;-72
2021/12/24 03:07:37;;;;;;;4.00;3.17;;;;;;;-2.76;46.15;98785.75;3300559;30;20051;-74
2021/12/24 03:09:19;;;;;;;3.55;2.22;;;;;;;-2.75;46.21;98789.19;3304940;29;20118;-72
2021/12/24 03:11:00;;;;;;;4.28;3.30;;;;;;;-2.74;46.14;98770.78;3308355;29;20042;-72
2021/12/24 03:12:44;;;;;;;4.03;2.45;;;;;;;-2.74;46.11;98781.19;3312989;29;20047;-72
2021/12/24 03:14:24;;;;;;;5.35;2.92;;;;;;;-2.72;46.18;98779.28;3313797;29;20054;-73
2021/12/24 03:16:05;;;;;;;4.07;2.25;;;;;;;-2.74;46.37;98768.16;3312716;29;20408;-74
2021/12/24 03:17:52;;;;;;;3.70;2.00;;;;;;;-2.72;46.60;98768.03;3312018;29;20043;-71
2021/12/24 03:19:33;;;;;;;2.28;2.10;;;;;;;-2.67;46.18;98764.06;3308114;29;20043;-71
2021/12/24 03:21:20;;;;;;;2.53;2.10;;;;;;;-2.66;46.28;98762.28;3307409;29;20193;-72
2021/12/24 03:24:47;;;;;;;3.95;2.45;;;;;;;-2.65;46.09;98751.72;3311348;29;20440;-71
2021/12/24 03:26:49;;;;;;;4.80;2.60;;;;;;;-2.60;46.42;98750.53;3311960;29;20053;-72
2021/12/24 03:28:30;;;;;;;5.28;2.80;;;;;;;-2.66;46.10;98742.28;3310902;29;20082;-71
2021/12/24 03:30:11;;;;;;;5.28;2.67;;;;;;;-2.68;46.28;98743.38;3303078;29;20049;-72
2021/12/24 03:31:52;;;;;;;3.88;2.45;;;;;;;-2.65;46.05;98743.09;3299023;29;20434;-72
2021/12/24 03:33:34;;;;;;;5.43;3.40;;;;;;;-2.65;46.06;98751.72;3301164;29;20047;-71
2021/12/24 03:35:15;;;;;;;;;;;;;;;-2.53;46.11;98743.78;3301632;30;20047;-74
2021/12/24 03:36:55;;;;;;;2.95;2.45;;;;;;;-2.58;46.18;98740.75;3300950;30;19932;-76
2021/12/24 03:38:41;;;;;;;3.80;2.72;;;;;;;-2.59;46.17;98739.13;3301100;30;20047;-74
2021/12/24 03:40:22;;;;;;;7.30;3.33;;;;;;;-2.65;45.89;98738.69;3308509;29;20039;-74
2021/12/24 03:42:04;;;;;;;5.07;3.25;;;;;;;-2.72;46.00;98732.34;3312785;29;20435;-75
2021/12/24 03:43:46;;;;;;;7.97;2.88;;;;;;;-2.75;46.05;98748.28;3312390;29;20050;-74
2021/12/24 03:45:34;;;;;;;4.33;2.20;;;;;;;-2.77;46.08;98742.34;3313643;29;20046;-73
2021/12/24 03:47:19;;;;;;;5.82;3.28;;;;;;;-2.76;46.17;98740.56;3313062;29;20303;-73
2021/12/24 03:49:18;;;;;;;4.10;2.70;;;;;;;-2.84;46.04;98733.41;3312662;29;20050;-73
2021/12/24 03:51:20;;;;;;;5.40;2.47;;;;;;;-2.83;46.37;98742.09;3301817;29;20035;-74
2021/12/24 03:54:55;;;;;;;2.58;2.38;;;;;;;-2.88;46.01;98730.25;3300765;29;20140;-72
2021/12/24 03:55:06;;;;;;;3.97;2.83;;;;;;;-2.88;46.46;98722.44;3307729;29;20042;-72
2021/12/24 03:56:48;;;;;;;3.83;2.58;;;;;;;-2.86;46.47;98749.22;3310084;29;20548;-73
2021/12/24 03:58:49;;;;;;;7.60;3.25;;;;;;;-2.86;46.32;98719.72;3288368;30;20055;-73
2021/12/24 04:00:48;;;;;;;3.63;3.20;;;;;;;-2.85;46.12;98721.34;3302364;29;20083;-72
2021/12/24 04:02:35;;;;;;;2.67;2.08;;;;;;;-2.83;46.26;98732.47;3301924;29;20047;-72
2021/12/24 04:04:51;;;;;;;6.47;3.50;;;;;;;-2.84;46.20;98725.59;3312264;29;20067;-72
2021/12/24 04:06:51;;;;;;;3.47;2.90;;;;;;;-2.85;46.19;98737.00;3307203;29;20066;-72
2021/12/24 04:08:57;;;;;;;3.28;2.47;;;;;;;-2.86;46.39;98715.31;3301520;30;20118;-72
2021/12/24 04:11:01;;;;;;;3.38;2.30;;;;;;;-2.84;46.05;98738.63;3301391;29;20141;-72
2021/12/24 04:12:45;;;;;;;6.50;2.95;;;;;;;-2.84;45.90;98725.59;3300348;29;20051;-71
2021/12/24 04:14:26;;;;;;;5.93;3.00;;;;;;;-2.79;46.48;98725.19;3300707;30;20051;-73
2021/12/24 04:16:07;;;;;;;4.70;2.50;;;;;;;-2.78;46.39;98722.47;3297086;30;20111;-73
2021/12/24 04:17:55;;;;;;;5.10;2.97;;;;;;;-2.80;46.12;98726.16;3312841;29;20047;-73
2021/12/24 04:25:15;;;;;;;4.72;3.28;;;;;;;-2.99;46.18;98719.94;3308637;29;20050;-71
2021/12/24 04:26:56;;;;;;;6.00;3.30;;;;;;;-3.05;46.38;98701.41;3312838;29;20051;-72
2021/12/24 04:28:37;;;;;;;10.75;3.83;;;;;;;-3.10;46.11;98705.25;3309425;29;20047;-72
2021/12/24 04:30:23;;;;;;;5.00;3.33;;;;;;;-3.10;46.09;98696.56;3300392;30;20476;-71
2021/12/24 04:32:20;;;;;;;2.95;2.60;;;;;;;-3.11;46.20;98716.59;3301127;29;20120;-73
2021/12/24 04:34:26;;;;;;;8.00;3.40;;;;;;;-3.10;46.08;98702.63;3299978;29;20633;-74
2021/12/24 04:36:22;;;;;;;5.18;3.45;;;;;;;-3.09;46.34;98714.69;3301156;29;20407;-74
2021/12/24 04:38:31;;;;;;;6.30;3.45;;;;;;;-3.05;46.03;98696.19;3301176;30;20491;-71
2021/12/24 04:52:52;;;;;;;3.80;3.08;;;;;;;-3.19;46.01;98698.19;3300909;29;20055;-71
2021/12/24 05:04:11;;;;;;;5.20;3.28;;;;;;;-3.30;45.97;98700.91;3297295;29;20047;-74
2021/12/24 05:06:05;;;;;;;;;;;;;;;-3.20;46.02;98696.56;3300178;29;20044;-72
2021/12/24 05:09:37;;;;;;;4.85;2.80;;;;;;;-3.27;45.72;98678.97;3299947;29;20126;-72
2021/12/24 05:11:20;;;;;;;3.83;3.03;;;;;;;-3.27;46.08;98695.44;3301837;29;20047;-73
2021/12/24 05:13:00;;;;;;;4.95;3.33;;;;;;;-3.24;46.22;98674.31;3310620;29;20043;-70
2021/12/24 05:14:50;;;;;;;6.53;2.88;;;;;;;-3.21;45.87;98675.84;3299865;30;20096;-72
2021/12/24 05:16:54;;;;;;;5.68;3.28;;;;;;;-3.18;45.74;98663.34;3312703;29;20055;-71
2021/12/24 05:21:33;;;;;;;3.78;2.63;;;;;;;-3.09;46.10;98666.97;3313872;29;20046;-71
2021/12/24 05:23:15;;;;;;;6.22;3.35;;;;;;;-3.05;45.91;98657.09;3311203;29;20131;-73
2021/12/24 05:24:56;;;;;;;5.68;3.70;;;;;;;-3.05;45.74;98665.72;3309576;29;20543;-71
2021/12/24 05:26:39;;;;;;;6.53;3.97;;;;;;;-3.04;46.17;98662.19;3304872;29;20130;-72
2021/12/24 05:28:20;;;;;;;;;;;;;;;-2.95;45.84;98668.38;3300732;30;20415;-75
2021/12/24 05:30:01;;;;;;;6.68;3.10;;;;;;;-2.99;46.10;98661.78;3299792;30;19925;-73
2021/12/24 05:31:42;;;;;;;4.70;2.92;;;;;;;-3.00;45.82;98671.38;3299810;30;20043;-74
2021/12/24 05:33:23;;;;;;;3.65;2.80;;;;;;;-2.98;45.76;98663.41;3299480;29;20138;-73
2021/12/24 05:35:04;;;;;;;5.75;3.20;;;;;;;-3.00;45.97;98660.94;3302526;29;20117;-74
2021/12/24 05:36:49;;;;;;;5.10;3.88;;;;;;;-3.00;46.01;98660.13;3312579;29;20051;-75
2021/12/24 05:38:30;;;;;;;9.50;4.07;;;;;;;-3.00;46.17;98654.91;3309320;29;20051;-74
2021/12/24 05:40:11;;;;;;;4.40;2.87;;;;;;;-3.01;45.83;98637.63;3312044;29;20511;-74
2021/12/24 05:41:52;;;;;;;5.00;3.00;;;;;;;-3.03;45.88;98655.19;3299342;29;20130;-73
2021/12/24 05:43:34;;;;;;;;;;;;;;;-2.93;46.10;98666.44;3309739;29;20162;-73
2021/12/24 05:45:14;;;;;;;4.90;3.55;;;;;;;-3.00;45.82;98654.91;3299922;29;19917;-74
2021/12/24 05:47:14;;;;;;;3.25;2.22;;;;;;;-3.03;45.72;98666.41;3300397;30;20055;-74
2021/12/24 05:49:05;;;;;;;7.40;3.58;;;;;;;-3.05;45.84;98670.13;3300471;29;20114;-75
2021/12/24 05:50:47;;;;;;;5.40;3.95;;;;;;;-3.07;46.21;98668.47;3302147;29;20042;-76
2021/12/24 05:52:47;;;;;;;4.72;3.22;;;;;;;-3.08;46.07;98673.81;3298846;29;20116;-73
2021/12/24 05:54:43;;;;;;;3.92;3.05;;;;;;;-3.10;46.11;98681.78;3309327;29;20511;-73
2021/12/24 05:56:32;;;;;;;5.20;3.33;;;;;;;-3.13;46.54;98666.38;3311933;29;20047;-73
2021/12/24 05:58:25;;;;;;;5.70;3.25;;;;;;;-3.14;46.08;98669.16;3311614;29;20055;-73
2021/12/24 06:00:09;;;;;;;4.78;3.53;;;;;;;-3.14;46.45;98663.94;3311697;29;20047;-72
2021/12/24 06:01:59;;;;;;;7.47;3.38;;;;;;;-3.07;46.32;98678.09;3300663;29;20460;-73
2021/12/24 06:03:40;;;;;;;4.75;3.58;;;;;;;-3.07;46.34;98668.47;3311684;29;20137;-73
2021/12/24 06:05:21;;;;;;;5.80;3.78;;;;;;;-3.05;46.53;98663.13;3306141;29;20084;-72
2021/12/24 06:07:02;;;;;;;6.53;4.00;;;;;;;-3.02;46.60;98659.41;3312417;29;20208;-73
2021/12/24 06:08:43;;;;;;;6.80;3.65;;;;;;;-3.02;46.48;98673.31;3311491;29;20117;-73
2021/12/24 06:10:24;;;;;;;7.75;3.08;;;;;;;-3.00;46.61;98665.34;3312314;29;20098;-71
2021/12/24 06:12:05;;;;;;;4.45;3.08;;;;;;;-3.00;46.45;98658.34;3312471;29;20039;-72
2021/12/24 06:13:51;;;;;;;7.38;3.53;;;;;;;-2.99;46.39;98653.97;3312234;29;20104;-71
2021/12/24 06:15:41;;;;;;;4.25;3.35;;;;;;;-3.00;46.53;98653.13;3310154;29;20499;-73
2021/12/24 06:17:23;;;;;;;8.13;4.00;;;;;;;-2.98;46.55;98658.22;3312558;29;20158;-72
2021/12/24 06:19:04;;;;;;;9.85;3.60;;;;;;;-3.01;46.42;98658.47;3312318;29;20050;-72
2021/12/24 06:20:45;;;;;;;4.97;3.22;;;;;;;-3.01;46.62;98668.91;3312678;29;20499;-73
2021/12/24 06:22:26;;;;;;;6.30;3.47;;;;;;;-3.05;46.61;98657.09;3312393;29;20462;-74
2021/12/24 06:24:06;;;;;;;7.38;3.33;;;;;;;-3.06;46.48;98656.28;3312145;29;20125;-73
2021/12/24 06:25:49;;;;;;;5.18;3.53;;;;;;;-3.04;46.52;98645.72;3310137;29;20101;-73
2021/12/24 06:27:30;;;;;;;5.78;3.45;;;;;;;-3.01;46.50;98659.31;3312337;29;20133;-73
2021/12/24 06:29:11;;;;;;;7.03;3.90;;;;;;;-2.97;46.81;98652.03;3312308;29;20119;-73
2021/12/24 06:30:52;;;;;;;6.82;4.05;;;;;;;-2.93;46.90;98656.03;3312386;29;20043;-73
2021/12/24 06:32:33;;;;;;;5.72;3.83;;;;;;;-2.87;46.59;98665.91;3312185;29;20141;-72
2021/12/24 06:34:14;;;;;;;7.07;3.90;;;;;;;-2.84;46.76;98663.03;3312444;29;20039;-71
2021/12/24 06:35:56;;;;;;;4.68;3.17;;;;;;;-2.78;46.73;98664.28;3303087;29;20096;-73
2021/12/24 06:37:38;;;;;;;4.53;3.63;;;;;;;-2.76;46.45;98663.19;3299554;29;20046;-72
2021/12/24 06:39:19;;;;;;;5.00;3.45;;;;;;;-2.72;46.79;98663.75;3299879;30;20135;-73
2021/12/24 06:41:00;;;;;;;7.43;3.83;;;;;;;-2.73;46.50;98665.53;3301791;29;21666;-73
2021/12/24 06:42:40;;;;;;;4.55;3.10;;;;;;;-2.71;46.61;98666.22;3312731;29;20163;-73
2021/12/24 06:44:22;;;;;;;6.75;3.50;;;;;;;-2.71;46.54;98671.44;3311965;29;20081;-73
2021/12/24 06:46:10;;;;;;;4.68;3.13;;;;;;;-2.73;46.54;98662.91;3310001;29;20071;-74
2021/12/24 06:47:52;;;;;;;4.88;3.83;;;;;;;-2.73;46.47;98660.31;3312712;29;20145;-74
2021/12/24 06:49:33;;;;;;;5.60;3.58;;;;;;;-2.73;46.77;98673.34;3312846;29;20046;-73
2021/12/24 06:51:14;;;;;;;6.47;3.07;;;;;;;-2.72;46.60;98659.34;3312877;29;20224;-73
2021/12/24 06:52:55;;;;;;;3.78;2.70;;;;;;;-2.74;46.42;98661.25;3310250;29;20042;-74
2021/12/24 06:54:35;;;;;;;8.90;2.75;;;;;;;-2.77;46.72;98661.53;3311821;29;20051;-73
2021/12/24 06:56:21;;;;;;;3.90;3.20;;;;;;;-2.76;46.45;98665.81;3306693;29;20058;-72
2021/12/24 06:58:04;;;;;;;4.90;3.65;;;;;;;-2.81;46.79;98649.75;3311270;29;20061;-71
2021/12/24 06:59:47;;;;;;;8.80;4.47;;;;;;;-2.81;46.76;98675.81;3311464;29;20527;-73
2021/12/24 07:01:27;;;;;;;5.88;3.65;;;;;;;-2.81;46.94;98664.53;3297622;30;20051;-71
2021/12/24 07:03:11;;;;;;;6.75;3.80;;;;;;;-2.82;46.59;98663.72;3307555;29;20515;-72
2021/12/24 07:04:52;;;;;;;7.47;4.22;;;;;;;-2.83;46.96;98664.69;3311636;29;20057;-72
2021/12/24 07:06:34;;;;;;;4.90;3.30;;;;;;;-2.82;46.63;98665.50;3305342;29;20103;-72
2021/12/24 07:08:15;;;;;;;6.47;3.65;;;;;;;-2.82;46.96;98674.16;3312017;29;20051;-74
2021/12/24 07:09:56;;;;;;;5.30;3.67;;;;;;;-2.82;46.55;98675.94;3312385;29;20410;-73
2021/12/24 07:11:36;;;;;;;3.40;2.75;;;;;;;-2.84;46.67;98665.63;3311945;29;20047;-72
2021/12/24 07:13:17;;;;;;;4.43;3.38;;;;;;;-2.86;47.00;98676.22;3299230;29;20047;-73
2021/12/24 07:14:58;;;;;;;5.13;3.33;;;;;;;-2.89;47.02;98673.03;3299739;29;20047;-72
2021/12/24 07:16:39;;;;;;;4.78;3.35;;;;;;;-2.89;47.19;98660.00;3298631;30;20047;-70
2021/12/24 07:18:20;;;;;;;5.57;4.38;;;;;;;-2.85;47.05;98653.56;3299217;29;20043;-72
2021/12/24 07:20:01;;;;;;;6.65;3.95;;;;;;;-2.81;46.76;98675.81;3300327;29;20043;-74
2021/12/24 07:21:42;;;;;;;5.80;4.10;;;;;;;-2.80;46.99;98661.00;3310923;29;20085;-73
2021/12/24 07:23:25;;;;;;;6.07;3.63;;;;;;;-2.79;46.96;98663.44;3287485;30;20052;-72
2021/12/24 07:25:07;;;;;;;3.75;2.83;;;;;;;-2.77;46.85;98661.53;3297028;29;20212;-72
2021/12/24 07:26:48;;;;;;;;;;;;;;;-2.63;46.78;98657.72;3299431;29;20043;-71
2021/12/24 07:28:29;;;;;;;4.78;3.05;;;;;;;-2.71;46.61;98653.19;3299386;30;20416;-73
2021/12/24 07:30:12;;;;;;;4.18;2.63;;;;;;;-2.66;46.69;98673.63;3299559;30;20511;-73
2021/12/24 07:31:54;;;;;;;4.78;3.05;;;;;;;-2.73;46.62;98644.66;3301330;29;20054;-72
2021/12/24 07:33:37;;;;;;;6.72;3.67;;;;;;;-2.70;46.52;98662.66;3299214;29;20495;-71
2021/12/24 07:35:18;;;;;;;7.55;3.85;;;;;;;-2.71;46.67;98660.16;3299457;30;20110;-73
2021/12/24 07:36:59;;;;;;;5.32;2.97;;;;;;;-2.69;46.83;98656.47;3301822;29;20118;-71
2021/12/24 07:38:40;;;;;;;5.35;3.45;;;;;;;-2.67;46.68;98664.16;3309368;29;20144;-72
2021/12/24 07:40:23;;;;;;;7.00;3.55;;;;;;;-2.64;46.62;98656.88;3304848;29;20423;-74
2021/12/24 07:42:04;;;;;;;6.55;3.75;;;;;;;-2.63;46.39;98660.34;3299468;30;20050;-73
2021/12/24 07:43:45;;;;;;;4.85;3.75;;;;;;;-2.66;46.51;98657.97;3310797;29;20047;-73
2021/12/24 07:45:26;;;;;;;6.03;4.10;;;;;;;-2.67;46.54;98667.59;3308311;29;20506;-71
2021/12/24 07:47:15;;;;;;;5.03;3.53;;;;;;;-2.68;46.54;98676.38;3308447;29;20154;-70
2021/12/24 07:49:12;;;;;;;6.13;3.30;;;;;;;-2.66;46.31;98651.00;3309112;29;20554;-73
2021/12/24 07:52:33;;;;;;;5.53;3.13;;;;;;;-2.58;46.57;98657.28;3308898;29;20042;-72
2021/12/24 07:54:14;;;;;;;3.53;3.13;;;;;;;-2.54;46.48;98649.06;3310039;29;20082;-72
2021/12/24 07:55:58;;;;;;;6.13;4.10;;;;;;;-2.51;46.09;98653.19;3311805;29;20058;-73
2021/12/24 07:57:39;;;;;;;7.03;3.65;;;;;;;-2.46;46.21;98661.41;3307986;29;20119;-71
2021/12/24 07:59:20;;;;;;;5.78;4.35;;;;;;;-2.47;46.02;98665.00;3307886;29;20047;-72
2021/12/24 08:01:01;;;;;;;8.15;4.00;;;;;;;-2.47;46.19;98678.88;3310858;29;20134;-71
2021/12/24 08:02:43;;;;;;;4.25;3.33;;;;;;;-2.51;46.43;98650.56;3306913;29;20415;-72
2021/12/24 08:04:24;;;;;;;6.45;4.10;;;;;;;-2.48;46.40;98650.28;3298352;29;20055;-72
2021/12/24 08:06:05;;;;;;;5.20;3.45;;;;;;;-2.48;46.20;98639.84;3311369;29;20154;-72
2021/12/24 08:07:46;;;;;;;8.65;3.75;;;;;;;-2.47;46.27;98659.78;3304113;29;20043;-72
2021/12/24 08:09:27;;;;;;;9.63;3.45;;;;;;;-2.45;46.21;98639.59;3299966;29;20400;-72
2021/12/24 08:11:08;;;;;;;4.53;3.53;;;;;;;-2.41;45.96;98651.41;3307083;29;20150;-73
2021/12/24 08:12:51;;;;;;;4.25;3.85;;;;;;;-2.41;45.88;98638.34;3298956;30;20054;-73
2021/12/24 08:14:33;;;;;;;4.63;3.58;;;;;;;-2.40;45.98;98645.25;3298878;29;20047;-73
2021/12/24 08:16:15;;;;;;;4.60;3.47;;;;;;;-2.43;45.85;98662.00;3300945;29;20123;-71
2021/12/24 08:17:57;;;;;;;6.43;3.22;;;;;;;-2.44;46.01;98639.44;3298886;29;20058;-72
2021/12/24 08:19:38;;;;;;;5.60;3.85;;;;;;;-2.44;45.92;98647.28;3313774;29;20477;-73
2021/12/24 08:21:19;;;;;;;6.05;3.78;;;;;;;-2.42;46.24;98640.16;3312626;29;20054;-72
2021/12/24 08:23:00;;;;;;;7.05;3.65;;;;;;;-2.39;46.15;98633.81;3304366;29;20140;-71
2021/12/24 08:24:41;;;;;;;8.68;4.55;;;;;;;-2.35;46.01;98652.63;3302274;29;20503;-72
2021/12/24 08:26:22;;;;;;;3.95;2.80;;;;;;;-2.33;46.06;98648.09;3299649;29;20039;-71
2021/12/24 08:28:03;;;;;;;6.60;3.58;;;;;;;-2.36;46.17;98633.53;3304861;29;20421;-72
2021/12/24 08:29:44;;;;;;;6.40;3.72;;;;;;;-2.36;45.83;98643.97;3307584;29;20054;-72
2021/12/24 08:31:25;;;;;;;5.68;3.28;;;;;;;-2.31;45.81;98649.59;3298088;29;20145;-72
2021/12/24 08:33:10;;;;;;;6.70;3.13;;;;;;;-2.31;45.97;98644.38;3299100;29;20149;-71
2021/12/24 08:34:53;;;;;;;5.07;3.15;;;;;;;-2.33;46.10;98633.25;3299700;29;20054;-72
2021/12/24 08:36:35;;;;;;;7.85;4.00;;;;;;;-2.30;46.23;98643.41;3299762;30;20062;-73
2021/12/24 08:38:19;;;;;;;5.68;3.22;;;;;;;-2.26;46.21;98644.78;3301288;29;20047;-73
2021/12/24 08:40:01;;;;;;;6.38;3.70;;;;;;;-2.22;46.12;98640.97;3301324;29;20099;-73
2021/12/24 08:41:44;;;;;;;;;;;;;;;-2.11;45.80;98665.25;3288479;30;20051;-72
2021/12/24 08:43:25;;;;;;;4.32;3.28;;;;;;;-2.20;45.85;98632.97;3309976;29;19928;-72
2021/12/24 08:45:06;;;;;;;5.10;3.78;;;;;;;-2.25;45.81;98629.97;3300589;29;20147;-71
2021/12/24 08:46:47;;;;;;;10.00;3.78;;;;;;;-2.28;45.80;98641.50;3300192;30;20507;-72
2021/12/24 08:48:28;;;;;;;4.65;3.53;;;;;;;-2.32;45.82;98621.88;3300625;30;20129;-72
2021/12/24 08:50:10;;;;;;;6.72;4.28;;;;;;;-2.38;45.71;98625.03;3301092;29;20043;-72
2021/12/24 08:51:51;;;;;;;7.25;4.05;;;;;;;-2.37;45.76;98631.09;3300730;30;20142;-72
2021/12/24 08:53:32;;;;;;;8.70;4.47;;;;;;;-2.37;46.07;98618.03;3310070;29;20523;-72
2021/12/24 08:55:15;;;;;;;6.88;4.35;;;;;;;-2.30;46.07;98622.53;3301297;29;20130;-71
2021/12/24 08:56:58;;;;;;;5.88;3.60;;;;;;;-2.26;46.03;98618.69;3301293;29;20112;-71
2021/12/24 08:58:39;;;;;;;5.95;4.18;;;;;;;-2.24;45.89;98622.00;3300941;29;20133;-70
2021/12/24 09:00:21;;;;;;;6.65;4.38;;;;;;;-2.20;45.99;98639.00;3303313;29;20047;-73
2021/12/24 09:02:03;;;;;;;6.57;3.67;;;;;;;-2.17;45.91;98626.66;3304585;29;20083;-72
2021/12/24 09:03:45;;;;;;;5.78;4.05;;;;;;;-2.24;45.84;98616.78;3300821;29;20039;-71
2021/12/24 09:05:26;;;;;;;6.63;3.85;;;;;;;-2.19;45.78;98616.38;3311534;29;20130;-74
2021/12/24 09:07:06;;;;;;;6.82;4.13;;;;;;;-2.18;45.82;98615.41;3308592;29;20043;-77
2021/12/24 09:08:48;;;;;;;8.30;4.32;;;;;;;-2.15;46.11;98601.25;3307939;29;20215;-71
2021/12/24 09:10:29;;;;;;;7.22;4.05;;;;;;;-2.13;46.13;98609.75;3307533;29;20035;-71
2021/12/24 09:12:11;;;;;;;7.38;4.10;;;;;;;-2.10;46.08;98606.88;3299856;29;20526;-72
2021/12/24 09:13:52;;;;;;;8.93;4.07;;;;;;;-2.06;45.80;98608.25;3300277;29;20043;-74
2021/12/24 09:15:33;;;;;;;7.32;4.13;;;;;;;-2.04;46.00;98595.84;3302973;29;20054;-71
2021/12/24 09:17:14;;;;;;;8.13;4.60;;;;;;;-2.01;46.28;98601.63;3299920;29;20515;-72
2021/12/24 09:19:03;;;;;;;8.70;4.40;;;;;;;-1.97;45.72;98597.75;3300038;29;20074;-72
2021/12/24 09:20:44;;;;;;;7.35;4.32;;;;;;;-1.93;45.83;98593.09;3299789;29;20291;-73
2021/12/24 09:22:33;;;;;;;9.45;4.35;;;;;;;-1.88;46.31;98595.28;3307448;29;20125;-72
2021/12/24 09:24:17;;;;;;;8.82;4.57;;;;;;;-1.79;45.99;98591.78;3311476;29;20046;-72
2021/12/24 09:25:58;;;;;;;6.10;3.95;;;;;;;-1.73;45.92;98593.00;3302416;29;20506;-71
2021/12/24 09:27:39;;;;;;;8.82;4.70;;;;;;;-1.70;46.21;98584.88;3299936;29;20078;-72
2021/12/24 09:29:20;;;;;;;9.73;5.00;;;;;;;-1.65;46.17;98588.72;3308098;29;20197;-72
2021/12/24 09:31:03;;;;;;;10.93;4.25;;;;;;;-1.65;45.67;98582.66;3311551;29;20149;-74
2021/12/24 09:32:44;;;;;;;13.43;4.53;;;;;;;-1.67;45.86;98577.59;3298294;30;20482;-73
2021/12/24 09:34:25;;;;;;;5.83;3.60;;;;;;;-1.69;46.03;98571.69;3302388;29;20309;-71
2021/12/24 09:36:06;;;;;;;8.18;4.55;;;;;;;-1.68;45.65;98569.88;3299954;29;20297;-71
2021/12/24 09:37:48;;;;;;;6.15;4.30;;;;;;;-1.66;46.07;98594.91;3311927;29;20042;-73
2021/12/24 09:39:29;;;;;;;7.33;4.30;;;;;;;-1.67;46.03;98579.38;3310995;29;20142;-72
2021/12/24 09:41:10;;;;;;;8.68;4.28;;;;;;;-1.69;45.80;98573.47;3313184;29;20149;-72
2021/12/24 09:42:51;;;;;;;9.13;4.50;;;;;;;-1.68;45.86;98585.56;3295637;29;20039;-73
2021/12/24 09:44:32;;;;;;;9.45;3.45;;;;;;;-1.70;45.97;98587.50;3301160;29;20094;-74
2021/12/24 09:46:13;;;;;;;8.80;4.65;;;;;;;-1.70;45.85;98566.59;3312829;29;20038;-72
2021/12/24 09:47:53;;;;;;;6.18;4.03;;;;;;;-1.66;45.85;98579.22;3313243;29;20478;-72
2021/12/24 09:49:34;;;;;;;8.43;5.13;;;;;;;-1.66;45.96;98571.38;3295835;30;20036;-73
2021/12/24 09:51:16;;;;;;;7.28;4.30;;;;;;;-1.63;45.83;98572.91;3299971;29;20050;-73
2021/12/24 09:52:57;;;;;;;9.70;4.40;;;;;;;-1.60;46.00;98572.59;3306851;29;20050;-72
2021/12/24 09:54:42;;;;;;;6.28;4.15;;;;;;;-1.56;46.05;98576.56;3301392;29;20110;-72